Time;durP1;ratioP1;P1;durP2;ratioP2;P2;SDS_P1;SDS_P2;PMS_P1;PMS_P2;Temp;Humidity;BMP_temperature;BMP_pressure;BME280_temperature;BME280_humidity;BME280_pressure;Samples;Min_cycle;Max_cycle;Signal;HPM_P1;HPM_P2
2023/07/07 00:00:47;;;;;;;10.23;9.80;;;18.70;72.80;;;;;;5066568;28;20482;-86
2023/07/07 00:03:15;;;;;;;9.37;9.07;;;18.70;72.80;;;;;;5068010;28;20458;-82
2023/07/07 00:05:45;;;;;;;10.13;9.63;;;18.60;74.70;;;;;;5071172;28;20462;-83
2023/07/07 00:08:13;;;;;;;9.83;9.33;;;18.60;73.70;;;;;;5061748;28;20473;-87
2023/07/07 00:10:42;;;;;;;9.63;9.23;;;18.50;73.60;;;;;;5082559;28;20471;-83
2023/07/07 00:13:11;;;;;;;9.70;9.30;;;18.50;74.70;;;;;;5060739;28;21330;-86
2023/07/07 00:15:44;;;;;;;9.63;9.23;;;18.50;76.00;;;;;;5070709;28;20999;-83
2023/07/07 00:18:14;;;;;;;9.63;9.33;;;18.40;77.50;;;;;;5073636;28;20446;-84
2023/07/07 00:20:44;;;;;;;10.87;9.97;;;18.40;93.60;;;;;;5070721;28;20474;-85
2023/07/07 00:23:12;;;;;;;10.13;9.73;;;18.40;92.80;;;;;;5071799;28;20447;-82
2023/07/07 00:25:41;;;;;;;10.83;10.43;;;18.40;82.00;;;;;;5068548;28;20988;-84
2023/07/07 00:28:09;;;;;;;9.83;9.43;;;18.30;82.80;;;;;;5064650;28;20479;-84
2023/07/07 00:30:37;;;;;;;10.27;9.73;;;18.30;84.10;;;;;;5063884;28;20563;-84
2023/07/07 00:33:05;;;;;;;10.77;10.17;;;18.20;83.90;;;;;;5063117;28;20501;-88
2023/07/07 00:35:33;;;;;;;10.03;9.53;;;18.20;87.00;;;;;;5068897;28;20434;-85
2023/07/07 00:38:03;;;;;;;10.53;9.97;;;18.20;85.90;;;;;;5072111;28;20470;-85
2023/07/07 00:40:31;;;;;;;10.27;9.67;;;18.20;87.00;;;;;;5069794;28;21247;-83
2023/07/07 00:42:59;;;;;;;10.87;10.33;;;18.20;88.00;;;;;;5066075;28;20473;-82
2023/07/07 00:45:27;;;;;;;10.23;9.60;;;18.20;90.20;;;;;;5066642;28;20454;-85
2023/07/07 00:47:59;;;;;;;10.13;9.77;;;18.10;91.10;;;;;;5069157;28;20533;-89
2023/07/07 00:50:36;;;;;;;10.80;10.30;;;18.10;91.00;;;;;;5065428;28;20485;-83
2023/07/07 00:53:06;;;;;;;10.30;9.90;;;18.10;92.30;;;;;;5068914;28;20493;-86
2023/07/07 00:55:39;;;;;;;10.53;9.83;;;18.10;99.90;;;;;;5074609;28;20505;-86
2023/07/07 00:58:11;;;;;;;10.33;9.93;;;18.10;92.90;;;;;;5061037;28;20458;-83
2023/07/07 01:00:42;;;;;;;10.50;10.10;;;18.00;93.20;;;;;;5068075;28;20474;-80
2023/07/07 01:03:19;;;;;;;11.63;11.10;;;18.00;93.80;;;;;;5066292;28;20612;-86
2023/07/07 01:05:49;;;;;;;11.00;10.47;;;18.00;95.00;;;;;;5063886;28;20446;-82
2023/07/07 01:08:19;;;;;;;11.63;11.03;;;17.90;95.70;;;;;;5062148;28;20492;-82
2023/07/07 01:10:47;;;;;;;11.37;10.87;;;17.90;97.40;;;;;;5066304;28;20570;-80
2023/07/07 01:13:16;;;;;;;10.83;10.30;;;17.90;97.40;;;;;;5057308;28;20458;-83
2023/07/07 01:15:51;;;;;;;11.10;10.40;;;17.90;98.40;;;;;;5065164;28;20863;-84
2023/07/07 01:18:32;;;;;;;10.50;10.00;;;17.80;99.20;;;;;;5069027;28;20458;-82
2023/07/07 01:21:09;;;;;;;10.73;10.20;;;17.90;99.70;;;;;;5068865;28;20450;-84
2023/07/07 01:24:18;;;;;;;10.23;9.80;;;17.90;99.90;;;;;;5067992;28;20445;-85
2023/07/07 01:27:30;;;;;;;10.13;9.70;;;17.80;99.70;;;;;;5062951;28;20451;-83
2023/07/07 01:30:25;;;;;;;10.30;9.90;;;17.80;99.70;;;;;;5071661;28;20553;-80
2023/07/07 01:32:54;;;;;;;10.40;9.90;;;17.70;99.80;;;;;;5073394;28;20454;-80
2023/07/07 01:35:23;;;;;;;10.97;10.37;;;17.70;99.90;;;;;;5071827;28;20454;-80
2023/07/07 01:37:54;;;;;;;10.60;10.20;;;17.70;99.90;;;;;;5070656;28;20439;-84
2023/07/07 01:40:27;;;;;;;10.60;10.00;;;17.60;99.90;;;;;;5086067;28;20578;-83
2023/07/07 01:43:01;;;;;;;10.67;10.13;;;17.60;99.90;;;;;;5074814;28;20463;-82
2023/07/07 01:45:35;;;;;;;10.23;9.83;;;17.60;99.90;;;;;;5067299;28;20481;-82
2023/07/07 01:48:12;;;;;;;10.93;10.53;;;17.60;99.90;;;;;;5064727;28;21156;-85
2023/07/07 01:50:41;;;;;;;10.60;10.10;;;17.60;99.90;;;;;;5055352;28;20470;-86
2023/07/07 01:53:14;;;;;;;10.80;10.30;;;17.60;99.90;;;;;;5067063;28;20497;-84
2023/07/07 01:55:47;;;;;;;10.83;10.43;;;17.60;99.90;;;;;;5070259;28;20485;-92
2023/07/07 01:58:17;;;;;;;11.67;11.27;;;17.50;99.90;;;;;;5067923;28;21058;-86
2023/07/07 02:00:49;;;;;;;11.60;10.90;;;17.50;99.90;;;;;;5063239;28;20483;-84
2023/07/07 02:03:18;;;;;;;10.73;10.33;;;17.50;99.90;;;;;;5069413;28;20546;-81
2023/07/07 02:05:47;;;;;;;11.17;10.57;;;17.40;99.90;;;;;;5067390;28;20903;-83
2023/07/07 02:08:16;;;;;;;10.63;10.07;;;17.40;99.90;;;;;;5066086;28;20465;-81
2023/07/07 02:10:44;;;;;;;11.10;10.60;;;17.30;99.90;;;;;;5066503;28;20853;-84
2023/07/07 02:13:12;;;;;;;10.03;9.63;;;17.30;99.90;;;;;;5068873;28;20451;-79
2023/07/07 02:15:41;;;;;;;10.80;10.30;;;17.30;99.90;;;;;;5067946;28;20458;-84
2023/07/07 02:18:10;;;;;;;10.93;10.43;;;17.30;99.90;;;;;;5071530;28;20466;-83
2023/07/07 02:20:39;;;;;;;10.50;10.00;;;17.30;99.90;;;;;;5074188;28;20620;-86
2023/07/07 02:23:07;;;;;;;10.73;10.30;;;17.30;99.90;;;;;;5072671;28;20565;-87
2023/07/07 02:25:35;;;;;;;10.13;9.67;;;17.30;99.90;;;;;;5072343;28;20462;-87
2023/07/07 02:28:03;;;;;;;11.10;10.60;;;17.20;99.90;;;;;;5072865;28;20539;-87
2023/07/07 02:30:31;;;;;;;11.00;10.33;;;17.20;99.90;;;;;;5069953;28;21228;-82
2023/07/07 02:33:00;;;;;;;11.30;10.90;;;17.20;99.90;;;;;;5072301;28;20455;-85
2023/07/07 02:35:31;;;;;;;11.30;10.73;;;17.10;99.90;;;;;;5080349;28;20462;-86
2023/07/07 02:37:59;;;;;;;11.10;10.60;;;17.10;99.90;;;;;;5071931;28;20983;-84
2023/07/07 02:40:27;;;;;;;11.17;10.67;;;17.10;99.90;;;;;;5068995;28;20897;-84
2023/07/07 02:42:55;;;;;;;10.83;10.33;;;17.10;99.90;;;;;;5067533;28;21007;-87
2023/07/07 02:45:23;;;;;;;10.33;9.93;;;17.10;99.90;;;;;;5071077;28;20457;-86
2023/07/07 02:47:52;;;;;;;10.90;10.47;;;17.10;99.90;;;;;;5071307;28;20463;-85
2023/07/07 02:50:20;;;;;;;11.53;10.57;;;17.10;99.90;;;;;;5071092;28;20577;-87
2023/07/07 02:52:50;;;;;;;10.90;10.40;;;17.00;99.90;;;;;;5070967;28;20972;-86
2023/07/07 02:55:18;;;;;;;10.90;10.50;;;17.10;99.90;;;;;;5068714;28;20478;-84
2023/07/07 02:57:46;;;;;;;11.10;10.70;;;17.00;99.90;;;;;;5071337;28;21116;-83
2023/07/07 03:00:15;;;;;;;11.17;10.60;;;17.00;99.90;;;;;;5071439;28;20481;-86
2023/07/07 03:02:47;;;;;;;11.00;10.40;;;17.00;99.90;;;;;;5073243;28;20529;-82
2023/07/07 03:05:15;;;;;;;11.10;10.50;;;16.90;99.90;;;;;;5067581;28;20451;-85
2023/07/07 03:07:43;;;;;;;10.30;9.80;;;17.00;99.90;;;;;;5069239;28;20529;-85
2023/07/07 03:10:13;;;;;;;10.83;10.30;;;16.90;99.90;;;;;;5078238;28;20470;-81
2023/07/07 03:12:44;;;;;;;10.67;10.20;;;16.90;99.90;;;;;;5076307;28;20446;-85
2023/07/07 03:15:12;;;;;;;11.20;10.70;;;17.00;99.90;;;;;;5066760;28;21095;-83
2023/07/07 03:17:40;;;;;;;10.73;10.33;;;16.80;99.90;;;;;;5072661;28;20502;-88
2023/07/07 03:20:10;;;;;;;10.57;10.13;;;16.80;99.90;;;;;;5067924;28;20523;-87
2023/07/07 03:22:38;;;;;;;11.23;10.73;;;16.80;99.90;;;;;;5084364;28;20561;-84
2023/07/07 03:25:06;;;;;;;10.77;10.30;;;16.80;99.90;;;;;;5070946;28;20469;-85
2023/07/07 03:27:36;;;;;;;11.63;10.90;;;16.70;99.90;;;;;;5073663;28;20463;-81
2023/07/07 03:30:08;;;;;;;11.40;10.80;;;16.70;99.90;;;;;;5072291;28;20983;-81
2023/07/07 03:32:36;;;;;;;11.47;10.87;;;16.70;99.90;;;;;;5074462;28;20466;-88
2023/07/07 03:35:05;;;;;;;10.80;10.40;;;16.70;99.90;;;;;;5071166;28;20450;-83
2023/07/07 03:37:33;;;;;;;11.83;11.23;;;16.70;99.90;;;;;;5072861;28;20450;-86
2023/07/07 03:40:01;;;;;;;11.07;10.60;;;16.70;99.90;;;;;;5069085;28;20466;-82
2023/07/07 03:42:30;;;;;;;11.07;10.57;;;16.70;99.90;;;;;;5071274;28;20488;-84
2023/07/07 03:45:00;;;;;;;11.50;11.00;;;16.60;99.90;;;;;;5073077;28;20455;-80
2023/07/07 03:47:28;;;;;;;11.50;11.10;;;16.60;99.90;;;;;;5068348;28;20455;-84
2023/07/07 03:49:56;;;;;;;12.17;11.40;;;16.60;99.90;;;;;;5066673;28;20470;-82
2023/07/07 03:52:24;;;;;;;11.60;11.10;;;16.60;99.90;;;;;;5064683;28;20451;-81
2023/07/07 03:54:52;;;;;;;11.23;10.73;;;16.60;99.90;;;;;;5068964;28;20497;-82
2023/07/07 03:57:20;;;;;;;12.03;11.33;;;16.60;99.90;;;;;;5062064;28;20458;-84
2023/07/07 03:59:49;;;;;;;10.63;10.13;;;16.60;99.90;;;;;;5070274;28;20482;-82
2023/07/07 04:02:18;;;;;;;11.00;10.50;;;16.60;99.90;;;;;;5062984;28;20461;-81
2023/07/07 04:04:48;;;;;;;11.00;10.50;;;16.70;99.90;;;;;;5069431;28;20589;-83
2023/07/07 04:07:16;;;;;;;11.50;11.00;;;16.70;99.90;;;;;;5062910;28;20468;-81
2023/07/07 04:09:52;;;;;;;11.83;11.17;;;16.70;99.90;;;;;;5067761;28;20494;-88
2023/07/07 04:12:20;;;;;;;11.00;10.50;;;16.70;99.90;;;;;;5070233;28;20458;-82
2023/07/07 04:14:49;;;;;;;11.03;10.60;;;16.70;99.90;;;;;;5072630;28;20500;-82
2023/07/07 04:17:18;;;;;;;11.50;10.83;;;16.70;99.90;;;;;;5069033;28;20461;-80
2023/07/07 04:19:46;;;;;;;11.10;10.60;;;16.60;99.90;;;;;;5061015;28;20493;-85
2023/07/07 04:22:14;;;;;;;11.37;10.90;;;16.60;99.90;;;;;;5070614;28;20541;-83
2023/07/07 04:24:42;;;;;;;12.07;11.47;;;16.70;99.90;;;;;;5070525;28;20478;-86
2023/07/07 04:27:10;;;;;;;12.43;11.60;;;16.60;99.90;;;;;;5069824;28;20516;-86
2023/07/07 04:29:38;;;;;;;12.47;11.87;;;16.60;99.90;;;;;;5070348;28;20496;-85
2023/07/07 04:32:07;;;;;;;12.10;11.60;;;16.70;99.90;;;;;;5064806;28;20999;-74
2023/07/07 04:34:37;;;;;;;11.17;10.77;;;16.60;99.90;;;;;;5058163;28;20558;-70
2023/07/07 04:37:05;;;;;;;12.40;11.70;;;16.60;99.90;;;;;;5054469;28;20451;-76
2023/07/07 04:39:33;;;;;;;12.30;11.70;;;16.60;99.90;;;;;;5059834;28;20478;-74
2023/07/07 04:42:01;;;;;;;12.03;11.53;;;16.50;99.90;;;;;;5062016;28;20458;-73
2023/07/07 04:44:29;;;;;;;12.03;11.53;;;16.50;99.90;;;;;;5062571;28;20513;-73
2023/07/07 04:46:58;;;;;;;12.20;11.70;;;16.60;99.90;;;;;;5059254;28;20968;-74
2023/07/07 04:49:26;;;;;;;12.50;11.80;;;16.70;99.90;;;;;;5061896;28;20873;-76
2023/07/07 04:51:55;;;;;;;11.60;11.10;;;16.80;99.90;;;;;;5056799;28;20450;-72
2023/07/07 04:54:23;;;;;;;12.30;11.73;;;16.90;99.90;;;;;;5060362;28;20455;-76
2023/07/07 04:56:53;;;;;;;11.53;11.13;;;16.90;99.90;;;;;;5061235;28;20479;-71
2023/07/07 04:59:21;;;;;;;12.87;11.80;;;17.00;99.90;;;;;;5054694;28;20500;-72
2023/07/07 05:01:49;;;;;;;12.87;12.07;;;17.10;99.90;;;;;;5057010;28;20447;-75
2023/07/07 05:04:17;;;;;;;12.83;12.17;;;17.10;99.90;;;;;;5063123;28;20487;-74
2023/07/07 05:06:46;;;;;;;12.20;11.50;;;17.20;99.90;;;;;;5060390;28;21008;-74
2023/07/07 05:09:16;;;;;;;13.40;12.80;;;17.20;99.90;;;;;;5062196;28;20483;-74
2023/07/07 05:11:44;;;;;;;13.50;12.80;;;17.30;99.90;;;;;;5061550;28;20455;-75
2023/07/07 05:14:12;;;;;;;13.53;12.93;;;17.40;99.90;;;;;;5060167;28;20493;-76
2023/07/07 05:16:40;;;;;;;13.80;13.13;;;17.40;99.90;;;;;;5064413;28;20451;-82
2023/07/07 05:19:10;;;;;;;13.87;13.07;;;17.40;99.90;;;;;;5062566;28;20466;-81
2023/07/07 05:21:40;;;;;;;13.13;12.47;;;17.50;99.90;;;;;;5057860;28;20537;-80
2023/07/07 05:24:48;;;;;;;13.60;12.90;;;17.60;99.90;;;;;;5051315;28;20473;-82
2023/07/07 05:27:16;;;;;;;13.13;12.40;;;17.60;99.90;;;;;;5055987;28;20451;-80
2023/07/07 05:29:44;;;;;;;13.43;12.73;;;17.70;99.90;;;;;;5059507;28;20482;-83
2023/07/07 05:32:12;;;;;;;13.30;12.70;;;17.70;99.90;;;;;;5060112;28;20291;-84
2023/07/07 05:34:41;;;;;;;12.47;11.77;;;17.80;99.90;;;;;;5056669;28;20501;-80
2023/07/07 05:37:09;;;;;;;12.27;11.50;;;17.90;99.90;;;;;;5057590;28;21029;-81
2023/07/07 05:39:37;;;;;;;11.83;11.23;;;17.90;99.90;;;;;;5061571;28;21011;-81
2023/07/07 05:42:08;;;;;;;12.07;11.53;;;18.00;99.90;;;;;;5063488;28;20802;-85
2023/07/07 05:44:36;;;;;;;13.10;12.50;;;18.10;99.90;;;;;;5065889;28;20898;-83
2023/07/07 05:47:04;;;;;;;12.20;11.70;;;18.10;99.90;;;;;;5066668;28;20446;-86
2023/07/07 05:49:32;;;;;;;13.23;12.63;;;18.20;99.90;;;;;;5064871;28;20485;-83
2023/07/07 05:52:00;;;;;;;12.87;12.23;;;18.30;99.90;;;;;;5066704;28;20446;-79
2023/07/07 05:54:28;;;;;;;13.00;12.50;;;18.30;99.90;;;;;;5067299;28;20467;-81
2023/07/07 05:56:59;;;;;;;14.30;13.43;;;18.40;99.90;;;;;;5066424;28;20446;-80
2023/07/07 05:59:28;;;;;;;13.10;12.40;;;18.40;99.90;;;;;;5069588;28;20488;-81
2023/07/07 06:01:56;;;;;;;13.30;12.70;;;18.50;99.90;;;;;;5069209;28;20447;-82
2023/07/07 06:04:25;;;;;;;13.23;12.53;;;18.60;99.90;;;;;;5067546;28;20525;-83
2023/07/07 06:06:53;;;;;;;12.93;12.23;;;18.60;99.90;;;;;;5066179;28;20453;-84
2023/07/07 06:09:21;;;;;;;14.17;13.37;;;18.60;99.90;;;;;;5069516;28;20467;-82
2023/07/07 06:11:49;;;;;;;13.97;13.17;;;18.50;99.90;;;;;;5064504;28;20465;-81
2023/07/07 06:14:18;;;;;;;14.10;13.53;;;18.60;99.90;;;;;;5061149;28;21075;-85
2023/07/07 06:16:48;;;;;;;14.20;13.53;;;18.70;99.90;;;;;;5067224;28;20473;-83
2023/07/07 06:19:16;;;;;;;15.20;14.27;;;18.70;99.90;;;;;;5067248;28;20475;-87
2023/07/07 06:21:44;;;;;;;14.33;13.50;;;18.70;99.90;;;;;;5066319;28;20447;-83
2023/07/07 06:24:12;;;;;;;13.93;13.30;;;18.80;99.90;;;;;;5066903;28;20454;-83
2023/07/07 06:26:41;;;;;;;15.50;14.33;;;18.80;99.90;;;;;;5066122;28;20469;-83
2023/07/07 06:29:09;;;;;;;14.93;14.20;;;18.90;99.90;;;;;;5065878;28;20982;-82
2023/07/07 06:31:37;;;;;;;14.70;13.97;;;18.90;99.90;;;;;;5063854;28;20545;-84
2023/07/07 06:34:07;;;;;;;14.80;14.30;;;19.00;99.90;;;;;;5065749;28;20868;-83
2023/07/07 06:36:35;;;;;;;14.30;13.70;;;19.00;99.90;;;;;;5067172;28;20952;-81
2023/07/07 06:39:03;;;;;;;15.10;14.50;;;19.10;99.90;;;;;;5070510;28;20473;-82
2023/07/07 06:41:32;;;;;;;14.00;13.40;;;19.00;99.90;;;;;;5064310;28;20921;-83
2023/07/07 06:44:00;;;;;;;14.43;13.83;;;19.10;99.90;;;;;;5069366;28;20453;-82
2023/07/07 06:46:28;;;;;;;15.10;14.30;;;19.20;99.90;;;;;;5069881;28;20861;-84
2023/07/07 06:48:56;;;;;;;14.70;14.10;;;19.20;99.90;;;;;;5068899;28;20454;-81
2023/07/07 06:51:26;;;;;;;14.47;13.97;;;19.40;99.90;;;;;;5066250;28;20569;-82
2023/07/07 06:53:54;;;;;;;14.77;14.07;;;19.50;99.90;;;;;;5065485;28;20536;-81
2023/07/07 06:56:23;;;;;;;14.67;14.07;;;19.50;99.90;;;;;;5067384;28;20451;-80
2023/07/07 06:58:51;;;;;;;15.40;14.53;;;19.50;99.90;;;;;;5069954;28;21086;-82
2023/07/07 07:01:19;;;;;;;15.60;14.50;;;19.60;99.90;;;;;;5063119;28;20463;-81
2023/07/07 07:03:47;;;;;;;14.20;13.60;;;19.70;99.90;;;;;;5060316;28;20960;-85
2023/07/07 07:06:16;;;;;;;14.20;13.60;;;19.80;99.90;;;;;;5066607;28;21033;-82
2023/07/07 07:08:45;;;;;;;13.90;13.30;;;19.90;99.90;;;;;;5064661;28;20522;-81
2023/07/07 07:11:14;;;;;;;16.33;15.33;;;19.90;99.90;;;;;;5069695;28;20504;-85
2023/07/07 07:13:43;;;;;;;14.40;13.80;;;20.00;99.90;;;;;;5066805;28;20463;-81
2023/07/07 07:16:11;;;;;;;13.90;13.30;;;20.00;99.90;;;;;;5068008;28;20485;-84
2023/07/07 07:18:39;;;;;;;14.43;13.70;;;20.10;99.90;;;;;;5061586;28;20471;-84
2023/07/07 07:21:07;;;;;;;14.80;14.20;;;20.20;99.90;;;;;;5063737;28;21028;-80
2023/07/07 07:23:35;;;;;;;14.77;14.00;;;20.30;99.90;;;;;;5068856;28;20471;-83
2023/07/07 07:26:05;;;;;;;15.37;14.60;;;20.30;99.90;;;;;;5069095;28;20585;-80
2023/07/07 07:28:33;;;;;;;16.40;15.50;;;20.30;99.90;;;;;;5066966;28;20451;-81
2023/07/07 07:31:01;;;;;;;14.57;13.87;;;20.40;99.90;;;;;;5066978;28;21035;-82
2023/07/07 07:33:31;;;;;;;14.70;14.10;;;20.50;99.90;;;;;;5067346;28;21322;-82
2023/07/07 07:35:59;;;;;;;14.40;13.70;;;20.60;99.90;;;;;;5068010;28;20450;-83
2023/07/07 07:38:27;;;;;;;14.60;14.00;;;20.60;99.90;;;;;;5069511;28;20553;-82
2023/07/07 07:40:56;;;;;;;14.77;14.13;;;20.60;99.90;;;;;;5068615;28;20469;-81
2023/07/07 07:43:26;;;;;;;13.80;13.10;;;20.70;99.90;;;;;;5068253;28;20454;-83
2023/07/07 07:45:55;;;;;;;14.07;13.37;;;20.70;99.90;;;;;;5067796;28;20477;-83
2023/07/07 07:48:23;;;;;;;14.60;13.80;;;20.80;99.90;;;;;;5067835;28;20459;-79
2023/07/07 07:50:52;;;;;;;14.43;13.70;;;20.90;99.90;;;;;;5065336;28;20944;-81
2023/07/07 07:53:20;;;;;;;14.97;14.17;;;20.90;99.90;;;;;;5068612;28;20541;-84
2023/07/07 07:55:48;;;;;;;14.60;13.90;;;21.10;99.90;;;;;;5067325;28;20467;-83
2023/07/07 07:58:16;;;;;;;14.70;14.00;;;21.10;99.90;;;;;;5064514;28;20561;-83
2023/07/07 08:00:46;;;;;;;14.93;14.03;;;21.10;99.90;;;;;;5062081;28;20495;-83
2023/07/07 08:03:14;;;;;;;14.60;14.00;;;21.10;99.90;;;;;;5065014;28;20457;-82
2023/07/07 08:05:45;;;;;;;14.37;13.67;;;21.20;99.90;;;;;;5067836;28;21007;-83
2023/07/07 08:08:13;;;;;;;14.40;13.50;;;21.20;99.90;;;;;;5068943;28;20539;-79
2023/07/07 08:10:44;;;;;;;13.80;13.20;;;21.20;99.90;;;;;;5067734;28;20471;-78
2023/07/07 08:13:25;;;;;;;14.65;13.95;;;21.30;99.90;;;;;;5068043;28;20461;-82
2023/07/07 08:16:10;;;;;;;14.00;13.50;;;21.40;99.90;;;;;;5060344;28;20200;-81
2023/07/07 08:18:38;;;;;;;15.03;14.30;;;21.40;99.90;;;;;;5067332;28;20451;-81
2023/07/07 08:21:07;;;;;;;15.07;14.37;;;21.50;99.90;;;;;;5068140;28;20455;-80
2023/07/07 08:23:36;;;;;;;15.27;14.67;;;21.50;99.90;;;;;;5069380;28;20446;-84
2023/07/07 08:26:04;;;;;;;15.13;14.43;;;21.60;99.90;;;;;;5063988;28;20501;-82
2023/07/07 08:28:35;;;;;;;15.47;14.60;;;21.60;99.90;;;;;;5062724;28;20455;-83
2023/07/07 08:31:03;;;;;;;15.43;14.53;;;21.70;99.90;;;;;;5063888;28;20488;-81
2023/07/07 08:33:33;;;;;;;15.07;14.37;;;21.70;99.90;;;;;;5068904;28;20454;-80
2023/07/07 08:36:01;;;;;;;15.00;14.37;;;21.80;99.90;;;;;;5071547;28;20454;-81
2023/07/07 08:38:30;;;;;;;15.80;15.10;;;21.80;99.90;;;;;;5068018;28;20451;-81
2023/07/07 08:40:58;;;;;;;15.57;14.87;;;21.90;99.90;;;;;;5066792;28;20528;-80
2023/07/07 08:43:28;;;;;;;14.93;14.20;;;21.90;99.90;;;;;;5067867;28;20470;-81
2023/07/07 08:46:14;;;;;;;14.93;14.30;;;22.00;99.90;;;;;;5063861;28;20513;-82
2023/07/07 08:51:19;;;;;;;16.40;15.30;;;22.10;99.90;;;;;;5010339;28;20972;-81
2023/07/07 08:53:55;;;;;;;14.70;14.00;;;22.20;99.90;;;;;;5007576;28;20457;-83
2023/07/07 08:56:35;;;;;;;15.30;14.60;;;22.20;99.90;;;;;;5005317;28;20763;-81
2023/07/07 08:59:33;;;;;;;15.60;14.77;;;22.20;99.90;;;;;;4996930;28;20484;-83
2023/07/07 09:02:14;;;;;;;15.70;14.90;;;22.30;99.90;;;;;;5025665;28;20485;-86
2023/07/07 09:13:12;;;;;;;16.17;15.40;;;22.80;99.90;;;;;;5021952;28;20480;-81
2023/07/07 09:15:44;;;;;;;16.50;15.47;;;22.80;99.90;;;;;;5058401;28;20453;-80
2023/07/07 09:18:18;;;;;;;16.03;15.10;;;22.90;99.90;;;;;;5102928;28;20519;-86
2023/07/07 09:20:55;;;;;;;15.17;14.47;;;22.90;99.90;;;;;;5095276;28;20861;-81
2023/07/07 09:23:27;;;;;;;15.43;14.53;;;22.80;99.90;;;;;;5095574;28;20458;-83
2023/07/07 09:26:01;;;;;;;14.40;13.80;;;22.90;99.90;;;;;;5095064;28;20470;-82
2023/07/07 09:28:33;;;;;;;14.97;14.17;;;22.90;99.90;;;;;;5094635;28;20502;-80
2023/07/07 09:31:10;;;;;;;15.03;14.37;;;22.90;99.90;;;;;;5102128;28;20473;-82
2023/07/07 09:33:38;;;;;;;15.50;14.73;;;23.00;99.90;;;;;;5101204;28;20447;-82
2023/07/07 09:36:13;;;;;;;15.83;14.93;;;23.10;99.90;;;;;;5104126;28;20465;-81
2023/07/07 09:38:51;;;;;;;15.20;14.30;;;23.20;99.90;;;;;;5104751;28;20441;-81
2023/07/07 09:41:30;;;;;;;15.10;14.40;;;23.40;99.90;;;;;;5107730;28;20445;-80
2023/07/07 09:44:23;;;;;;;15.37;14.57;;;23.40;99.90;;;;;;5097675;28;20456;-81
2023/07/07 09:46:57;;;;;;;15.37;14.57;;;23.30;99.90;;;;;;5097128;28;20557;-80
2023/07/07 09:49:31;;;;;;;15.23;14.33;;;23.30;99.90;;;;;;5099211;28;20477;-81
2023/07/07 09:52:09;;;;;;;16.17;15.27;;;23.50;99.90;;;;;;5103629;28;21278;-82
2023/07/07 09:54:38;;;;;;;15.73;14.97;;;23.60;99.90;;;;;;5101158;28;20449;-82
2023/07/07 09:57:16;;;;;;;15.50;14.50;;;23.60;99.90;;;;;;5102470;28;20449;-80
2023/07/07 09:59:49;;;;;;;15.73;14.93;;;23.50;99.90;;;;;;5101614;28;20466;-77
2023/07/07 10:02:21;;;;;;;14.23;13.53;;;23.60;99.90;;;;;;5102744;28;20475;-82
2023/07/07 10:04:53;;;;;;;15.10;14.30;;;23.70;99.90;;;;;;5103300;28;20457;-81
2023/07/07 10:07:22;;;;;;;15.50;14.60;;;23.70;99.90;;;;;;5102726;28;20526;-82
2023/07/07 10:09:50;;;;;;;16.30;15.30;;;23.50;99.90;;;;;;5100845;28;20484;-81
2023/07/07 10:12:20;;;;;;;16.73;15.63;;;23.50;99.90;;;;;;5101729;28;20437;-82
2023/07/07 10:14:56;;;;;;;15.20;14.33;;;23.60;99.90;;;;;;5095079;28;21400;-79
2023/07/07 10:17:38;;;;;;;15.83;14.93;;;23.70;99.90;;;;;;5099969;28;20613;-82
2023/07/07 10:20:09;;;;;;;15.43;14.53;;;23.80;99.90;;;;;;5104908;28;20473;-82
2023/07/07 10:22:39;;;;;;;16.57;15.57;;;23.80;99.90;;;;;;5104579;28;20539;-81
2023/07/07 10:25:12;;;;;;;16.00;15.10;;;23.70;99.90;;;;;;5101190;28;20549;-81
2023/07/07 10:27:48;;;;;;;14.60;13.70;;;23.70;99.90;;;;;;5106671;28;20456;-82
2023/07/07 10:30:17;;;;;;;14.93;14.00;;;23.70;99.70;;;;;;5100038;28;20508;-79
2023/07/07 10:32:51;;;;;;;16.00;14.97;;;23.90;99.20;;;;;;5102243;28;20479;-81
2023/07/07 10:35:22;;;;;;;15.67;14.77;;;24.00;99.60;;;;;;5102000;28;20510;-81
2023/07/07 10:37:50;;;;;;;15.67;14.67;;;24.00;99.90;;;;;;5097544;28;20477;-81
2023/07/07 10:40:24;;;;;;;16.87;15.87;;;24.00;99.90;;;;;;5096274;28;20997;-83
2023/07/07 10:42:56;;;;;;;16.90;15.70;;;24.00;99.90;;;;;;5092792;28;20449;-84
2023/07/07 10:45:25;;;;;;;16.73;15.60;;;24.10;99.90;;;;;;5096467;28;20901;-82
2023/07/07 10:47:54;;;;;;;15.83;14.83;;;24.20;98.90;;;;;;5095166;28;20530;-83
2023/07/07 10:50:25;;;;;;;17.03;15.90;;;24.10;98.10;;;;;;5096709;28;20521;-81
2023/07/07 10:53:32;;;;;;;16.77;15.67;;;24.10;98.30;;;;;;5090952;28;20533;-84
2023/07/07 10:56:16;;;;;;;16.37;15.27;;;24.20;97.40;;;;;;5073803;28;20457;-83
2023/07/07 10:59:11;;;;;;;15.27;14.27;;;24.20;97.50;;;;;;5095171;28;20446;-80
2023/07/07 11:01:49;;;;;;;16.57;15.40;;;24.20;97.40;;;;;;5080242;28;20489;-83
2023/07/07 11:04:34;;;;;;;15.80;14.67;;;24.30;96.80;;;;;;5094517;28;20465;-83
2023/07/07 11:07:18;;;;;;;15.60;14.60;;;24.40;96.50;;;;;;5094087;28;20567;-83
2023/07/07 11:10:01;;;;;;;16.10;15.00;;;24.50;97.10;;;;;;5081524;28;20506;-83
2023/07/07 11:12:40;;;;;;;16.23;15.13;;;24.50;97.30;;;;;;5097309;28;20464;-81
2023/07/07 11:15:26;;;;;;;15.60;14.70;;;24.50;99.90;;;;;;5086901;28;20520;-80
2023/07/07 11:18:07;;;;;;;16.40;15.17;;;24.50;97.60;;;;;;5088524;28;20487;-83
2023/07/07 11:20:55;;;;;;;15.83;14.73;;;24.60;96.40;;;;;;5092752;28;20462;-82
2023/07/07 11:23:53;;;;;;;14.93;14.10;;;24.90;97.60;;;;;;5088071;28;20494;-83
2023/07/07 11:26:35;;;;;;;15.70;14.70;;;25.00;99.00;;;;;;5081967;28;20975;-83
2023/07/07 11:29:13;;;;;;;17.47;16.37;;;24.80;99.90;;;;;;5113676;27;20453;-83
2023/07/07 11:32:05;;;;;;;16.97;15.87;;;24.80;99.70;;;;;;5091290;28;20465;-83
2023/07/07 11:34:49;;;;;;;16.13;15.03;;;24.80;99.50;;;;;;5093621;28;20447;-84
2023/07/07 11:37:26;;;;;;;15.17;14.30;;;24.90;99.90;;;;;;5090771;28;20729;-82
2023/07/07 11:40:20;;;;;;;15.90;14.90;;;24.90;99.20;;;;;;5080511;28;20487;-84
2023/07/07 11:43:03;;;;;;;17.20;16.03;;;25.00;97.20;;;;;;5093120;28;20499;-85
2023/07/07 11:46:49;;;;;;;15.63;14.73;;;25.00;96.80;;;;;;5093983;28;20970;-84
2023/07/07 11:52:06;;;;;;;14.90;14.00;;;24.90;96.30;;;;;;5056480;28;20835;-83
2023/07/07 11:54:55;;;;;;;15.30;14.20;;;24.90;96.00;;;;;;5058601;28;20466;-83
2023/07/07 11:57:39;;;;;;;15.77;14.77;;;24.90;94.20;;;;;;5045780;28;20768;-83
2023/07/07 12:00:22;;;;;;;14.33;13.50;;;25.10;96.50;;;;;;5056826;28;20512;-84
2023/07/07 12:02:56;;;;;;;15.23;14.10;;;25.20;95.30;;;;;;5055522;28;20447;-84
2023/07/07 12:05:34;;;;;;;15.13;14.13;;;25.20;96.60;;;;;;5052843;28;20637;-84
2023/07/07 12:08:11;;;;;;;14.57;13.70;;;25.20;94.20;;;;;;5055838;28;20471;-84
2023/07/07 12:10:47;;;;;;;15.10;14.20;;;25.20;94.10;;;;;;5082757;22;21190;-84
2023/07/07 12:13:25;;;;;;;14.23;13.23;;;25.20;94.10;;;;;;5075584;28;20561;-83
2023/07/07 12:16:00;;;;;;;14.37;13.30;;;25.30;93.00;;;;;;5076517;28;20544;-82
2023/07/07 12:18:34;;;;;;;14.80;13.80;;;25.30;93.60;;;;;;5077277;28;20449;-84
2023/07/07 12:21:10;;;;;;;14.93;13.93;;;25.40;92.40;;;;;;5076482;28;20548;-83
2023/07/07 12:23:43;;;;;;;13.10;12.30;;;25.40;92.70;;;;;;5079577;28;20459;-85
2023/07/07 12:26:31;;;;;;;14.53;13.43;;;25.30;91.70;;;;;;5081962;28;20454;-84
2023/07/07 12:29:05;;;;;;;14.23;13.30;;;25.30;91.20;;;;;;5081194;28;21382;-83
2023/07/07 12:31:34;;;;;;;15.00;13.70;;;25.40;91.00;;;;;;5073314;28;20645;-84
2023/07/07 12:34:18;;;;;;;14.97;14.03;;;25.40;91.50;;;;;;5079148;28;20457;-83
2023/07/07 12:36:48;;;;;;;14.70;13.90;;;25.40;93.00;;;;;;5077493;28;20943;-84
2023/07/07 12:39:18;;;;;;;14.70;13.70;;;25.40;92.10;;;;;;5076984;28;20470;-84
2023/07/07 12:41:55;;;;;;;14.07;13.07;;;25.50;91.50;;;;;;5078311;28;20965;-84
2023/07/07 12:44:24;;;;;;;14.30;13.30;;;25.60;94.10;;;;;;5081406;28;20893;-84
2023/07/07 12:59:59;;;;;;;14.20;13.10;;;25.90;92.10;;;;;;5037722;28;20410;-83
2023/07/07 13:02:28;;;;;;;13.40;12.60;;;25.80;92.20;;;;;;5017637;28;20464;-83
2023/07/07 13:19:13;;;;;;;13.20;12.10;;;25.90;90.50;;;;;;4990528;22;20547;-84
2023/07/07 13:21:41;;;;;;;12.73;11.93;;;25.80;91.60;;;;;;5064268;28;21115;-83
2023/07/07 13:24:10;;;;;;;12.77;11.53;;;25.90;90.50;;;;;;5061480;28;20534;-84
2023/07/07 13:26:43;;;;;;;12.40;11.60;;;26.00;92.70;;;;;;5064194;28;20628;-83
2023/07/07 13:29:14;;;;;;;12.13;11.23;;;26.10;90.80;;;;;;5069138;28;20488;-83
2023/07/07 13:32:07;;;;;;;12.00;11.10;;;26.20;91.20;;;;;;5049117;28;21051;-83
2023/07/07 13:34:37;;;;;;;11.50;10.70;;;26.20;90.00;;;;;;5084528;28;21009;-82